sensor_id;sensor_type;location;lat;lon;timestamp;pressure;altitude;pressure_sealevel;temperature
68911;BMP180;55953;51.650;-0.522;2022-10-16T00:01:44;99631.20;;;12.16
68911;BMP180;55953;51.650;-0.522;2022-10-16T00:04:13;99627.20;;;12.10
68911;BMP180;55953;51.650;-0.522;2022-10-16T00:06:41;99632.60;;;12.10
68911;BMP180;55953;51.650;-0.522;2022-10-16T00:09:09;99631.80;;;12.00
68911;BMP180;55953;51.650;-0.522;2022-10-16T00:11:39;99626.80;;;11.90
68911;BMP180;55953;51.650;-0.522;2022-10-16T00:14:14;99633.20;;;11.90
68911;BMP180;55953;51.650;-0.522;2022-10-16T00:16:42;99632.40;;;11.90
68911;BMP180;55953;51.650;-0.522;2022-10-16T00:19:11;99628.60;;;11.90
68911;BMP180;55953;51.650;-0.522;2022-10-16T00:21:40;99622.40;;;11.90
68911;BMP180;55953;51.650;-0.522;2022-10-16T00:24:10;99630.80;;;11.90
68911;BMP180;55953;51.650;-0.522;2022-10-16T00:26:39;99629.60;;;11.86
68911;BMP180;55953;51.650;-0.522;2022-10-16T00:29:08;99625.80;;;11.90
68911;BMP180;55953;51.650;-0.522;2022-10-16T00:31:36;99630.00;;;11.90
68911;BMP180;55953;51.650;-0.522;2022-10-16T00:34:04;99629.00;;;11.90
68911;BMP180;55953;51.650;-0.522;2022-10-16T00:36:32;99629.80;;;11.98
68911;BMP180;55953;51.650;-0.522;2022-10-16T00:39:00;99632.80;;;12.00
68911;BMP180;55953;51.650;-0.522;2022-10-16T00:41:31;99632.40;;;12.00
68911;BMP180;55953;51.650;-0.522;2022-10-16T00:44:02;99634.00;;;12.10
68911;BMP180;55953;51.650;-0.522;2022-10-16T00:46:40;99634.40;;;12.10
68911;BMP180;55953;51.650;-0.522;2022-10-16T00:49:15;99638.00;;;12.10
68911;BMP180;55953;51.650;-0.522;2022-10-16T00:51:49;99642.60;;;12.12
68911;BMP180;55953;51.650;-0.522;2022-10-16T00:54:23;99641.20;;;12.20
68911;BMP180;55953;51.650;-0.522;2022-10-16T00:56:55;99637.20;;;12.10
68911;BMP180;55953;51.650;-0.522;2022-10-16T00:59:29;99645.40;;;12.10
68911;BMP180;55953;51.650;-0.522;2022-10-16T01:01:58;99641.00;;;12.04
68911;BMP180;55953;51.650;-0.522;2022-10-16T01:04:43;99641.40;;;12.00
68911;BMP180;55953;51.650;-0.522;2022-10-16T01:07:53;99644.80;;;12.00
68911;BMP180;55953;51.650;-0.522;2022-10-16T01:10:57;99652.40;;;11.90
68911;BMP180;55953;51.650;-0.522;2022-10-16T01:13:27;99659.00;;;11.90
68911;BMP180;55953;51.650;-0.522;2022-10-16T01:16:17;99662.20;;;11.90
68911;BMP180;55953;51.650;-0.522;2022-10-16T01:19:25;99658.60;;;11.80
68911;BMP180;55953;51.650;-0.522;2022-10-16T01:21:56;99658.60;;;11.80
68911;BMP180;55953;51.650;-0.522;2022-10-16T01:24:38;99659.40;;;11.80
68911;BMP180;55953;51.650;-0.522;2022-10-16T01:27:12;99650.20;;;11.72
68911;BMP180;55953;51.650;-0.522;2022-10-16T01:32:40;99645.60;;;11.82
68911;BMP180;55953;51.650;-0.522;2022-10-16T01:35:14;99649.40;;;11.90
68911;BMP180;55953;51.650;-0.522;2022-10-16T01:38:04;99641.00;;;12.00
68911;BMP180;55953;51.650;-0.522;2022-10-16T01:40:38;99643.20;;;12.00
68911;BMP180;55953;51.650;-0.522;2022-10-16T01:43:25;99650.40;;;12.10
68911;BMP180;55953;51.650;-0.522;2022-10-16T01:45:55;99658.60;;;12.10
68911;BMP180;55953;51.650;-0.522;2022-10-16T01:48:24;99664.20;;;12.14
68911;BMP180;55953;51.650;-0.522;2022-10-16T01:51:02;99662.40;;;12.12
68911;BMP180;55953;51.650;-0.522;2022-10-16T01:53:31;99666.60;;;12.12
68911;BMP180;55953;51.650;-0.522;2022-10-16T01:56:04;99664.80;;;12.12
68911;BMP180;55953;51.650;-0.522;2022-10-16T01:58:42;99668.40;;;12.16
68911;BMP180;55953;51.650;-0.522;2022-10-16T02:01:16;99670.40;;;12.10
68911;BMP180;55953;51.650;-0.522;2022-10-16T02:03:51;99675.60;;;12.10
68911;BMP180;55953;51.650;-0.522;2022-10-16T02:06:20;99685.00;;;12.10
68911;BMP180;55953;51.650;-0.522;2022-10-16T02:08:48;99679.40;;;12.00
68911;BMP180;55953;51.650;-0.522;2022-10-16T02:11:16;99681.00;;;12.00
68911;BMP180;55953;51.650;-0.522;2022-10-16T02:13:50;99674.40;;;12.00
68911;BMP180;55953;51.650;-0.522;2022-10-16T02:16:18;99678.00;;;12.00
68911;BMP180;55953;51.650;-0.522;2022-10-16T02:18:47;99686.40;;;11.96
68911;BMP180;55953;51.650;-0.522;2022-10-16T02:21:49;99693.80;;;11.90
68911;BMP180;55953;51.650;-0.522;2022-10-16T02:24:32;99693.40;;;11.90
68911;BMP180;55953;51.650;-0.522;2022-10-16T02:30:50;99708.40;;;11.90
68911;BMP180;55953;51.650;-0.522;2022-10-16T02:33:21;99704.80;;;11.80
68911;BMP180;55953;51.650;-0.522;2022-10-16T02:35:50;99711.00;;;11.80
68911;BMP180;55953;51.650;-0.522;2022-10-16T02:38:21;99718.80;;;11.80
68911;BMP180;55953;51.650;-0.522;2022-10-16T02:40:49;99729.80;;;11.70
68911;BMP180;55953;51.650;-0.522;2022-10-16T02:43:18;99730.20;;;11.70
68911;BMP180;55953;51.650;-0.522;2022-10-16T02:45:46;99732.80;;;11.70
68911;BMP180;55953;51.650;-0.522;2022-10-16T02:48:14;99735.00;;;11.60
68911;BMP180;55953;51.650;-0.522;2022-10-16T02:50:42;99736.00;;;11.60
68911;BMP180;55953;51.650;-0.522;2022-10-16T02:53:10;99739.60;;;11.60
68911;BMP180;55953;51.650;-0.522;2022-10-16T02:55:38;99730.60;;;11.60
68911;BMP180;55953;51.650;-0.522;2022-10-16T02:58:06;99730.60;;;11.60
68911;BMP180;55953;51.650;-0.522;2022-10-16T03:00:34;99729.20;;;11.66
68911;BMP180;55953;51.650;-0.522;2022-10-16T03:03:02;99737.20;;;11.62
68911;BMP180;55953;51.650;-0.522;2022-10-16T03:05:31;99739.80;;;11.60
68911;BMP180;55953;51.650;-0.522;2022-10-16T03:07:59;99739.40;;;11.60
68911;BMP180;55953;51.650;-0.522;2022-10-16T03:10:28;99736.80;;;11.50
68911;BMP180;55953;51.650;-0.522;2022-10-16T03:12:56;99749.00;;;11.50
68911;BMP180;55953;51.650;-0.522;2022-10-16T03:15:24;99756.40;;;11.48
68911;BMP180;55953;51.650;-0.522;2022-10-16T03:17:53;99755.40;;;11.40
68911;BMP180;55953;51.650;-0.522;2022-10-16T03:20:21;99762.40;;;11.36
68911;BMP180;55953;51.650;-0.522;2022-10-16T03:22:49;99770.00;;;11.30
68911;BMP180;55953;51.650;-0.522;2022-10-16T03:25:17;99772.60;;;11.30
68911;BMP180;55953;51.650;-0.522;2022-10-16T03:27:45;99774.60;;;11.30
68911;BMP180;55953;51.650;-0.522;2022-10-16T03:30:13;99782.00;;;11.20
68911;BMP180;55953;51.650;-0.522;2022-10-16T03:32:40;99782.20;;;11.20
68911;BMP180;55953;51.650;-0.522;2022-10-16T03:35:08;99785.80;;;11.20
68911;BMP180;55953;51.650;-0.522;2022-10-16T03:37:36;99786.80;;;11.10
68911;BMP180;55953;51.650;-0.522;2022-10-16T03:40:05;99791.00;;;11.10
68911;BMP180;55953;51.650;-0.522;2022-10-16T03:42:34;99793.60;;;11.00
68911;BMP180;55953;51.650;-0.522;2022-10-16T03:45:02;99802.20;;;10.98
68911;BMP180;55953;51.650;-0.522;2022-10-16T03:47:30;99808.40;;;10.90
68911;BMP180;55953;51.650;-0.522;2022-10-16T03:50:00;99804.20;;;10.90
68911;BMP180;55953;51.650;-0.522;2022-10-16T03:52:28;99810.80;;;10.90
68911;BMP180;55953;51.650;-0.522;2022-10-16T03:54:56;99805.60;;;10.90
68911;BMP180;55953;51.650;-0.522;2022-10-16T03:57:25;99816.20;;;10.90
68911;BMP180;55953;51.650;-0.522;2022-10-16T03:59:53;99823.80;;;10.90
68911;BMP180;55953;51.650;-0.522;2022-10-16T04:02:21;99827.80;;;10.80
68911;BMP180;55953;51.650;-0.522;2022-10-16T04:04:49;99833.80;;;10.80
68911;BMP180;55953;51.650;-0.522;2022-10-16T04:07:17;99833.40;;;10.80
68911;BMP180;55953;51.650;-0.522;2022-10-16T04:09:45;99832.00;;;10.80
68911;BMP180;55953;51.650;-0.522;2022-10-16T04:12:13;99836.60;;;10.70
68911;BMP180;55953;51.650;-0.522;2022-10-16T04:14:41;99840.80;;;10.70
68911;BMP180;55953;51.650;-0.522;2022-10-16T04:17:09;99845.20;;;10.70
68911;BMP180;55953;51.650;-0.522;2022-10-16T04:19:36;99851.40;;;10.60
68911;BMP180;55953;51.650;-0.522;2022-10-16T04:22:05;99854.00;;;10.60
68911;BMP180;55953;51.650;-0.522;2022-10-16T04:24:33;99862.80;;;10.60
68911;BMP180;55953;51.650;-0.522;2022-10-16T04:27:01;99861.60;;;10.50
68911;BMP180;55953;51.650;-0.522;2022-10-16T04:29:29;99865.20;;;10.50
68911;BMP180;55953;51.650;-0.522;2022-10-16T04:31:57;99874.60;;;10.50
68911;BMP180;55953;51.650;-0.522;2022-10-16T04:34:25;99880.00;;;10.50
68911;BMP180;55953;51.650;-0.522;2022-10-16T04:36:53;99876.60;;;10.40
68911;BMP180;55953;51.650;-0.522;2022-10-16T04:39:21;99886.00;;;10.40
68911;BMP180;55953;51.650;-0.522;2022-10-16T04:41:49;99894.40;;;10.40
68911;BMP180;55953;51.650;-0.522;2022-10-16T04:44:17;99899.40;;;10.30
68911;BMP180;55953;51.650;-0.522;2022-10-16T04:46:45;99906.60;;;10.30
68911;BMP180;55953;51.650;-0.522;2022-10-16T04:49:13;99908.20;;;10.30
68911;BMP180;55953;51.650;-0.522;2022-10-16T04:51:41;99911.40;;;10.30
68911;BMP180;55953;51.650;-0.522;2022-10-16T04:54:10;99918.00;;;10.30
68911;BMP180;55953;51.650;-0.522;2022-10-16T04:56:38;99922.60;;;10.26
68911;BMP180;55953;51.650;-0.522;2022-10-16T04:59:14;99933.60;;;10.20
68911;BMP180;55953;51.650;-0.522;2022-10-16T05:01:43;99934.60;;;10.24
68911;BMP180;55953;51.650;-0.522;2022-10-16T05:04:12;99941.00;;;10.20
68911;BMP180;55953;51.650;-0.522;2022-10-16T05:06:40;99944.20;;;10.20
68911;BMP180;55953;51.650;-0.522;2022-10-16T05:09:09;99950.60;;;10.20
68911;BMP180;55953;51.650;-0.522;2022-10-16T05:11:37;99955.60;;;10.20
68911;BMP180;55953;51.650;-0.522;2022-10-16T05:14:05;99968.00;;;10.20
68911;BMP180;55953;51.650;-0.522;2022-10-16T05:16:33;99969.20;;;10.20
68911;BMP180;55953;51.650;-0.522;2022-10-16T05:19:01;99969.00;;;10.20
68911;BMP180;55953;51.650;-0.522;2022-10-16T05:21:49;99970.20;;;10.20
68911;BMP180;55953;51.650;-0.522;2022-10-16T05:24:17;99974.80;;;10.10
68911;BMP180;55953;51.650;-0.522;2022-10-16T05:26:45;99977.60;;;10.14
68911;BMP180;55953;51.650;-0.522;2022-10-16T05:29:13;99979.20;;;10.12
68911;BMP180;55953;51.650;-0.522;2022-10-16T05:31:41;99983.80;;;10.10
68911;BMP180;55953;51.650;-0.522;2022-10-16T05:34:08;99987.00;;;10.10
68911;BMP180;55953;51.650;-0.522;2022-10-16T05:36:36;99986.20;;;10.10
68911;BMP180;55953;51.650;-0.522;2022-10-16T05:39:05;99989.00;;;10.10
68911;BMP180;55953;51.650;-0.522;2022-10-16T05:41:33;99994.20;;;10.10
68911;BMP180;55953;51.650;-0.522;2022-10-16T05:44:04;99998.80;;;10.10
68911;BMP180;55953;51.650;-0.522;2022-10-16T05:46:33;100004.80;;;10.04
68911;BMP180;55953;51.650;-0.522;2022-10-16T05:49:01;100007.60;;;10.00
68911;BMP180;55953;51.650;-0.522;2022-10-16T05:51:29;100011.00;;;10.00
68911;BMP180;55953;51.650;-0.522;2022-10-16T05:53:57;100018.00;;;10.00
68911;BMP180;55953;51.650;-0.522;2022-10-16T05:56:25;100020.00;;;10.00
68911;BMP180;55953;51.650;-0.522;2022-10-16T05:58:53;100019.40;;;10.00
68911;BMP180;55953;51.650;-0.522;2022-10-16T06:01:21;100024.80;;;10.00
68911;BMP180;55953;51.650;-0.522;2022-10-16T06:03:52;100024.40;;;10.00
68911;BMP180;55953;51.650;-0.522;2022-10-16T06:06:23;100033.00;;;10.00
68911;BMP180;55953;51.650;-0.522;2022-10-16T06:08:55;100031.00;;;10.00
68911;BMP180;55953;51.650;-0.522;2022-10-16T06:11:29;100036.60;;;9.98
68911;BMP180;55953;51.650;-0.522;2022-10-16T06:14:00;100032.40;;;9.90
68911;BMP180;55953;51.650;-0.522;2022-10-16T06:16:30;100041.80;;;9.90
68911;BMP180;55953;51.650;-0.522;2022-10-16T06:18:58;100038.60;;;9.90
68911;BMP180;55953;51.650;-0.522;2022-10-16T06:21:28;100044.60;;;9.90
68911;BMP180;55953;51.650;-0.522;2022-10-16T06:23:58;100048.00;;;9.90
68911;BMP180;55953;51.650;-0.522;2022-10-16T06:26:29;100047.00;;;9.90
68911;BMP180;55953;51.650;-0.522;2022-10-16T06:28:59;100046.20;;;9.84
68911;BMP180;55953;51.650;-0.522;2022-10-16T06:31:28;100039.60;;;9.80
68911;BMP180;55953;51.650;-0.522;2022-10-16T06:33:59;100052.40;;;9.80
68911;BMP180;55953;51.650;-0.522;2022-10-16T06:36:27;100059.40;;;9.80
68911;BMP180;55953;51.650;-0.522;2022-10-16T06:38:56;100065.00;;;9.82
68911;BMP180;55953;51.650;-0.522;2022-10-16T06:41:24;100072.20;;;9.80
68911;BMP180;55953;51.650;-0.522;2022-10-16T06:43:52;100076.20;;;9.80
68911;BMP180;55953;51.650;-0.522;2022-10-16T06:46:23;100078.20;;;9.90
68911;BMP180;55953;51.650;-0.522;2022-10-16T06:48:54;100075.80;;;9.90
68911;BMP180;55953;51.650;-0.522;2022-10-16T06:51:24;100082.00;;;9.90
68911;BMP180;55953;51.650;-0.522;2022-10-16T06:53:55;100085.80;;;9.98
68911;BMP180;55953;51.650;-0.522;2022-10-16T06:56:32;100087.20;;;9.90
68911;BMP180;55953;51.650;-0.522;2022-10-16T06:59:02;100091.40;;;9.90
68911;BMP180;55953;51.650;-0.522;2022-10-16T07:01:31;100094.80;;;9.90
68911;BMP180;55953;51.650;-0.522;2022-10-16T07:04:01;100099.00;;;10.00
68911;BMP180;55953;51.650;-0.522;2022-10-16T07:06:33;100107.40;;;10.00
68911;BMP180;55953;51.650;-0.522;2022-10-16T07:09:05;100116.20;;;10.00
68911;BMP180;55953;51.650;-0.522;2022-10-16T07:11:33;100124.40;;;10.00
68911;BMP180;55953;51.650;-0.522;2022-10-16T07:14:02;100122.80;;;10.00
68911;BMP180;55953;51.650;-0.522;2022-10-16T07:16:32;100132.80;;;10.00
68911;BMP180;55953;51.650;-0.522;2022-10-16T07:19:02;100135.40;;;10.00
68911;BMP180;55953;51.650;-0.522;2022-10-16T07:21:33;100144.80;;;10.00
68911;BMP180;55953;51.650;-0.522;2022-10-16T07:24:10;100147.20;;;10.10
68911;BMP180;55953;51.650;-0.522;2022-10-16T07:26:40;100152.80;;;10.20
68911;BMP180;55953;51.650;-0.522;2022-10-16T07:29:34;100159.80;;;10.20
68911;BMP180;55953;51.650;-0.522;2022-10-16T07:32:02;100173.80;;;10.30
68911;BMP180;55953;51.650;-0.522;2022-10-16T07:34:30;100175.60;;;10.30
68911;BMP180;55953;51.650;-0.522;2022-10-16T07:36:58;100177.20;;;10.30
68911;BMP180;55953;51.650;-0.522;2022-10-16T07:39:25;100178.20;;;10.40
68911;BMP180;55953;51.650;-0.522;2022-10-16T07:41:53;100179.00;;;10.40
68911;BMP180;55953;51.650;-0.522;2022-10-16T07:44:21;100187.20;;;10.42
68911;BMP180;55953;51.650;-0.522;2022-10-16T07:46:49;100191.40;;;10.40
68911;BMP180;55953;51.650;-0.522;2022-10-16T07:49:17;100193.40;;;10.40
68911;BMP180;55953;51.650;-0.522;2022-10-16T07:51:45;100195.40;;;10.48
68911;BMP180;55953;51.650;-0.522;2022-10-16T07:54:13;100199.40;;;10.48
68911;BMP180;55953;51.650;-0.522;2022-10-16T07:56:41;100199.20;;;10.50
68911;BMP180;55953;51.650;-0.522;2022-10-16T07:59:11;100204.80;;;10.50
68911;BMP180;55953;51.650;-0.522;2022-10-16T08:01:39;100197.80;;;10.50
68911;BMP180;55953;51.650;-0.522;2022-10-16T08:04:08;100203.00;;;10.50
68911;BMP180;55953;51.650;-0.522;2022-10-16T08:06:39;100216.20;;;10.60
68911;BMP180;55953;51.650;-0.522;2022-10-16T08:09:07;100215.40;;;10.60
68911;BMP180;55953;51.650;-0.522;2022-10-16T08:11:36;100217.60;;;10.70
68911;BMP180;55953;51.650;-0.522;2022-10-16T08:14:03;100213.40;;;10.78
68911;BMP180;55953;51.650;-0.522;2022-10-16T08:16:31;100213.60;;;10.80
68911;BMP180;55953;51.650;-0.522;2022-10-16T08:18:59;100223.40;;;10.90
68911;BMP180;55953;51.650;-0.522;2022-10-16T08:21:27;100233.60;;;10.96
68911;BMP180;55953;51.650;-0.522;2022-10-16T08:23:55;100245.00;;;11.00
68911;BMP180;55953;51.650;-0.522;2022-10-16T08:26:27;100245.20;;;11.00
68911;BMP180;55953;51.650;-0.522;2022-10-16T08:28:55;100245.60;;;11.10
68911;BMP180;55953;51.650;-0.522;2022-10-16T08:31:24;100247.20;;;11.20
68911;BMP180;55953;51.650;-0.522;2022-10-16T08:33:54;100251.00;;;11.26
68911;BMP180;55953;51.650;-0.522;2022-10-16T08:36:22;100255.60;;;11.30
68911;BMP180;55953;51.650;-0.522;2022-10-16T08:38:50;100265.60;;;11.30
68911;BMP180;55953;51.650;-0.522;2022-10-16T08:41:50;100259.60;;;11.40
68911;BMP180;55953;51.650;-0.522;2022-10-16T08:47:26;100261.40;;;11.50
68911;BMP180;55953;51.650;-0.522;2022-10-16T08:50:08;100261.60;;;11.60
68911;BMP180;55953;51.650;-0.522;2022-10-16T08:52:42;100271.20;;;11.60
68911;BMP180;55953;51.650;-0.522;2022-10-16T08:55:49;100273.40;;;11.70
68911;BMP180;55953;51.650;-0.522;2022-10-16T08:58:26;100274.20;;;11.80
68911;BMP180;55953;51.650;-0.522;2022-10-16T09:01:04;100277.60;;;11.90
68911;BMP180;55953;51.650;-0.522;2022-10-16T09:07:22;100272.60;;;12.00
68911;BMP180;55953;51.650;-0.522;2022-10-16T09:13:28;100283.40;;;12.10
68911;BMP180;55953;51.650;-0.522;2022-10-16T09:16:19;100284.40;;;12.20
68911;BMP180;55953;51.650;-0.522;2022-10-16T09:19:17;100287.20;;;12.30
68911;BMP180;55953;51.650;-0.522;2022-10-16T09:21:47;100290.00;;;12.30
68911;BMP180;55953;51.650;-0.522;2022-10-16T09:24:18;100296.40;;;12.40
68911;BMP180;55953;51.650;-0.522;2022-10-16T09:26:47;100301.20;;;12.50
68911;BMP180;55953;51.650;-0.522;2022-10-16T09:29:18;100305.00;;;12.60
68911;BMP180;55953;51.650;-0.522;2022-10-16T09:31:53;100301.80;;;12.60
68911;BMP180;55953;51.650;-0.522;2022-10-16T09:34:36;100303.80;;;12.62
68911;BMP180;55953;51.650;-0.522;2022-10-16T09:37:14;100302.60;;;12.70
68911;BMP180;55953;51.650;-0.522;2022-10-16T09:39:54;100301.60;;;12.70
68911;BMP180;55953;51.650;-0.522;2022-10-16T09:42:36;100300.60;;;12.74
68911;BMP180;55953;51.650;-0.522;2022-10-16T09:45:05;100299.00;;;12.80
68911;BMP180;55953;51.650;-0.522;2022-10-16T09:47:39;100304.40;;;12.90
68911;BMP180;55953;51.650;-0.522;2022-10-16T09:50:27;100311.60;;;12.90
68911;BMP180;55953;51.650;-0.522;2022-10-16T09:53:13;100311.80;;;13.00
68911;BMP180;55953;51.650;-0.522;2022-10-16T09:55:49;100313.40;;;13.10
68911;BMP180;55953;51.650;-0.522;2022-10-16T09:58:20;100311.60;;;13.10
68911;BMP180;55953;51.650;-0.522;2022-10-16T10:00:52;100308.20;;;13.20
68911;BMP180;55953;51.650;-0.522;2022-10-16T10:03:43;100314.80;;;13.20
68911;BMP180;55953;51.650;-0.522;2022-10-16T10:06:25;100314.00;;;13.30
68911;BMP180;55953;51.650;-0.522;2022-10-16T10:09:05;100319.60;;;13.36
68911;BMP180;55953;51.650;-0.522;2022-10-16T10:11:57;100314.20;;;13.40
68911;BMP180;55953;51.650;-0.522;2022-10-16T10:14:35;100317.40;;;13.46
68911;BMP180;55953;51.650;-0.522;2022-10-16T10:22:25;100323.60;;;13.70
68911;BMP180;55953;51.650;-0.522;2022-10-16T10:31:03;100317.20;;;13.80
68911;BMP180;55953;51.650;-0.522;2022-10-16T10:36:41;100307.20;;;13.98
68911;BMP180;55953;51.650;-0.522;2022-10-16T10:39:22;100313.40;;;14.00
68911;BMP180;55953;51.650;-0.522;2022-10-16T10:45:50;100311.20;;;14.10
68911;BMP180;55953;51.650;-0.522;2022-10-16T10:48:57;100311.60;;;14.10
68911;BMP180;55953;51.650;-0.522;2022-10-16T10:54:42;100310.20;;;14.10
68911;BMP180;55953;51.650;-0.522;2022-10-16T10:57:30;100315.60;;;14.10
68911;BMP180;55953;51.650;-0.522;2022-10-16T11:00:21;100321.00;;;14.20
68911;BMP180;55953;51.650;-0.522;2022-10-16T11:09:10;100313.40;;;14.30
68911;BMP180;55953;51.650;-0.522;2022-10-16T11:11:49;100314.00;;;14.40
68911;BMP180;55953;51.650;-0.522;2022-10-16T11:14:35;100311.40;;;14.42
68911;BMP180;55953;51.650;-0.522;2022-10-16T11:17:16;100310.80;;;14.50
68911;BMP180;55953;51.650;-0.522;2022-10-16T11:19:54;100307.20;;;14.60
68911;BMP180;55953;51.650;-0.522;2022-10-16T11:22:38;100310.00;;;14.60
68911;BMP180;55953;51.650;-0.522;2022-10-16T11:25:27;100307.00;;;14.70
68911;BMP180;55953;51.650;-0.522;2022-10-16T11:28:08;100304.40;;;14.70
68911;BMP180;55953;51.650;-0.522;2022-10-16T11:36:17;100302.60;;;14.80
68911;BMP180;55953;51.650;-0.522;2022-10-16T11:39:17;100302.60;;;14.80
68911;BMP180;55953;51.650;-0.522;2022-10-16T11:48:27;100298.80;;;15.02
68911;BMP180;55953;51.650;-0.522;2022-10-16T11:54:16;100296.60;;;15.10
68911;BMP180;55953;51.650;-0.522;2022-10-16T11:56:49;100297.80;;;15.12
68911;BMP180;55953;51.650;-0.522;2022-10-16T11:59:43;100297.60;;;15.16
68911;BMP180;55953;51.650;-0.522;2022-10-16T12:02:30;100297.00;;;15.20
68911;BMP180;55953;51.650;-0.522;2022-10-16T12:10:28;100305.20;;;15.30
68911;BMP180;55953;51.650;-0.522;2022-10-16T12:12:59;100301.20;;;15.30
68911;BMP180;55953;51.650;-0.522;2022-10-16T12:15:31;100296.60;;;15.30
68911;BMP180;55953;51.650;-0.522;2022-10-16T12:18:24;100296.80;;;15.30
68911;BMP180;55953;51.650;-0.522;2022-10-16T12:20:59;100301.60;;;15.32
68911;BMP180;55953;51.650;-0.522;2022-10-16T12:24:00;100304.80;;;15.40
68911;BMP180;55953;51.650;-0.522;2022-10-16T12:26:32;100305.20;;;15.56
68911;BMP180;55953;51.650;-0.522;2022-10-16T12:31:57;100305.80;;;15.80
68911;BMP180;55953;51.650;-0.522;2022-10-16T12:34:41;100304.00;;;16.00
68911;BMP180;55953;51.650;-0.522;2022-10-16T12:37:25;100300.20;;;16.10
68911;BMP180;55953;51.650;-0.522;2022-10-16T12:39:55;100291.60;;;16.10
68911;BMP180;55953;51.650;-0.522;2022-10-16T12:44:56;100289.80;;;16.22
68911;BMP180;55953;51.650;-0.522;2022-10-16T12:49:58;100289.20;;;16.40
68911;BMP180;55953;51.650;-0.522;2022-10-16T12:52:53;100279.80;;;16.42
68911;BMP180;55953;51.650;-0.522;2022-10-16T12:55:22;100285.40;;;16.42
68911;BMP180;55953;51.650;-0.522;2022-10-16T12:58:09;100286.60;;;16.50
68911;BMP180;55953;51.650;-0.522;2022-10-16T13:00:47;100293.20;;;16.40
68911;BMP180;55953;51.650;-0.522;2022-10-16T13:09:50;100282.60;;;16.40
68911;BMP180;55953;51.650;-0.522;2022-10-16T13:18:32;100290.00;;;16.30
68911;BMP180;55953;51.650;-0.522;2022-10-16T13:21:35;100288.80;;;16.30
68911;BMP180;55953;51.650;-0.522;2022-10-16T13:27:59;100290.60;;;16.40
68911;BMP180;55953;51.650;-0.522;2022-10-16T13:30:39;100296.40;;;16.40
68911;BMP180;55953;51.650;-0.522;2022-10-16T13:35:55;100286.40;;;16.40
68911;BMP180;55953;51.650;-0.522;2022-10-16T13:38:28;100290.80;;;16.42
68911;BMP180;55953;51.650;-0.522;2022-10-16T13:41:01;100289.40;;;16.48
68911;BMP180;55953;51.650;-0.522;2022-10-16T13:43:39;100288.60;;;16.50
68911;BMP180;55953;51.650;-0.522;2022-10-16T13:46:24;100284.40;;;16.50
68911;BMP180;55953;51.650;-0.522;2022-10-16T13:49:32;100276.00;;;16.50
68911;BMP180;55953;51.650;-0.522;2022-10-16T13:51:57;100271.60;;;16.60
68911;BMP180;55953;51.650;-0.522;2022-10-16T13:54:27;100267.80;;;16.70
68911;BMP180;55953;51.650;-0.522;2022-10-16T13:56:56;100272.60;;;17.00
68911;BMP180;55953;51.650;-0.522;2022-10-16T13:59:54;100263.80;;;17.10
68911;BMP180;55953;51.650;-0.522;2022-10-16T14:02:34;100257.40;;;17.20
68911;BMP180;55953;51.650;-0.522;2022-10-16T14:05:08;100259.60;;;17.20
68911;BMP180;55953;51.650;-0.522;2022-10-16T14:07:38;100255.60;;;17.30
68911;BMP180;55953;51.650;-0.522;2022-10-16T14:10:24;100254.60;;;17.44
68911;BMP180;55953;51.650;-0.522;2022-10-16T14:13:04;100252.40;;;17.50
68911;BMP180;55953;51.650;-0.522;2022-10-16T14:15:36;100248.20;;;17.50
68911;BMP180;55953;51.650;-0.522;2022-10-16T14:18:04;100250.40;;;17.50
68911;BMP180;55953;51.650;-0.522;2022-10-16T14:20:34;100246.40;;;17.50
68911;BMP180;55953;51.650;-0.522;2022-10-16T14:23:30;100244.80;;;17.58
68911;BMP180;55953;51.650;-0.522;2022-10-16T14:28:42;100244.80;;;17.58
68911;BMP180;55953;51.650;-0.522;2022-10-16T14:31:33;100245.40;;;17.60
68911;BMP180;55953;51.650;-0.522;2022-10-16T14:34:01;100247.00;;;17.60
68911;BMP180;55953;51.650;-0.522;2022-10-16T14:36:30;100248.80;;;17.60
68911;BMP180;55953;51.650;-0.522;2022-10-16T14:39:16;100246.20;;;17.50
68911;BMP180;55953;51.650;-0.522;2022-10-16T14:41:48;100245.40;;;17.50
68911;BMP180;55953;51.650;-0.522;2022-10-16T14:44:18;100245.00;;;17.60
68911;BMP180;55953;51.650;-0.522;2022-10-16T14:46:49;100249.80;;;17.60
68911;BMP180;55953;51.650;-0.522;2022-10-16T14:49:20;100254.60;;;17.62
68911;BMP180;55953;51.650;-0.522;2022-10-16T14:51:49;100253.00;;;17.58
68911;BMP180;55953;51.650;-0.522;2022-10-16T14:54:18;100252.80;;;17.50
68911;BMP180;55953;51.650;-0.522;2022-10-16T14:56:56;100259.40;;;17.42
68911;BMP180;55953;51.650;-0.522;2022-10-16T14:59:37;100261.60;;;17.40
68911;BMP180;55953;51.650;-0.522;2022-10-16T15:02:31;100261.00;;;17.30
68911;BMP180;55953;51.650;-0.522;2022-10-16T15:05:33;100265.40;;;17.20
68911;BMP180;55953;51.650;-0.522;2022-10-16T15:08:02;100268.00;;;17.10
68911;BMP180;55953;51.650;-0.522;2022-10-16T15:10:31;100269.80;;;17.10
68911;BMP180;55953;51.650;-0.522;2022-10-16T15:13:00;100271.40;;;16.96
68911;BMP180;55953;51.650;-0.522;2022-10-16T15:15:44;100263.80;;;16.90
68911;BMP180;55953;51.650;-0.522;2022-10-16T15:18:13;100263.20;;;16.80
68911;BMP180;55953;51.650;-0.522;2022-10-16T15:20:42;100267.80;;;16.70
68911;BMP180;55953;51.650;-0.522;2022-10-16T15:23:20;100265.20;;;16.70
68911;BMP180;55953;51.650;-0.522;2022-10-16T15:25:50;100255.00;;;16.70
68911;BMP180;55953;51.650;-0.522;2022-10-16T15:28:21;100250.40;;;16.70
68911;BMP180;55953;51.650;-0.522;2022-10-16T15:30:52;100237.60;;;16.70
68911;BMP180;55953;51.650;-0.522;2022-10-16T15:33:26;100238.20;;;16.60
68911;BMP180;55953;51.650;-0.522;2022-10-16T15:35:56;100234.80;;;16.50
68911;BMP180;55953;51.650;-0.522;2022-10-16T15:38:24;100226.60;;;16.50
68911;BMP180;55953;51.650;-0.522;2022-10-16T15:40:54;100227.40;;;16.40
68911;BMP180;55953;51.650;-0.522;2022-10-16T15:43:22;100224.60;;;16.40
68911;BMP180;55953;51.650;-0.522;2022-10-16T15:46:11;100225.80;;;16.40
68911;BMP180;55953;51.650;-0.522;2022-10-16T15:48:41;100219.40;;;16.40
68911;BMP180;55953;51.650;-0.522;2022-10-16T15:51:10;100219.80;;;16.40
68911;BMP180;55953;51.650;-0.522;2022-10-16T15:53:38;100220.20;;;16.40
68911;BMP180;55953;51.650;-0.522;2022-10-16T15:56:10;100221.00;;;16.30
68911;BMP180;55953;51.650;-0.522;2022-10-16T15:58:39;100205.60;;;16.26
68911;BMP180;55953;51.650;-0.522;2022-10-16T16:01:07;100205.80;;;16.20